Time;durP1;ratioP1;P1;durP2;ratioP2;P2;SDS_P1;SDS_P2;PMS_P1;PMS_P2;Temp;Humidity;BMP_temperature;BMP_pressure;BME280_temperature;BME280_humidity;BME280_pressure;Samples;Min_cycle;Max_cycle;Signal;HPM_P1;HPM_P2
2020/12/03 00:01:46;;;;;;;104.53;57.72;;;;;;;0.77;66.96;95056.97;4158796;28;20046;-77
2020/12/03 00:03:59;;;;;;;103.13;56.40;;;;;;;0.76;66.90;95060.50;4142920;28;20062;-77
2020/12/03 00:06:07;;;;;;;105.65;57.13;;;;;;;0.74;65.81;95056.34;4159214;28;20429;-78
2020/12/03 00:08:09;;;;;;;108.80;60.00;;;;;;;0.72;66.01;95056.44;4158529;28;20579;-76
2020/12/03 00:10:10;;;;;;;105.70;56.22;;;;;;;0.70;66.58;95055.69;4158577;28;20184;-76
2020/12/03 00:12:12;;;;;;;100.10;56.83;;;;;;;0.69;66.70;95056.63;4159682;28;20053;-78
2020/12/03 00:14:13;;;;;;;110.57;60.08;;;;;;;0.68;66.84;95057.53;4157425;28;20501;-75
2020/12/03 00:16:15;;;;;;;106.43;56.88;;;;;;;0.66;67.21;95055.97;4160474;28;20114;-76
2020/12/03 00:18:16;;;;;;;103.68;57.10;;;;;;;0.69;66.94;95060.94;4158075;28;20115;-77
2020/12/03 00:20:17;;;;;;;104.45;56.15;;;;;;;0.68;67.00;95067.84;4160322;28;20053;-77
2020/12/03 00:22:19;;;;;;;97.00;55.53;;;;;;;0.69;67.41;95076.41;4146792;28;20056;-76
2020/12/03 00:24:30;;;;;;;95.97;54.00;;;;;;;0.72;66.49;95074.50;4141934;28;20057;-76
2020/12/03 00:26:32;;;;;;;100.03;55.05;;;;;;;0.74;66.54;95072.66;4158211;28;20473;-77
2020/12/03 00:28:36;;;;;;;97.70;54.40;;;;;;;0.74;66.98;95070.06;4142752;28;20050;-81
2020/12/03 00:30:37;;;;;;;87.25;50.15;;;;;;;0.74;66.39;95072.66;4143255;28;20316;-79
2020/12/03 00:32:38;;;;;;;98.97;52.55;;;;;;;0.75;66.64;95071.75;4144210;28;20144;-77
2020/12/03 00:34:40;;;;;;;98.47;52.65;;;;;;;0.78;66.30;95068.16;4143851;28;20334;-76
2020/12/03 00:36:41;;;;;;;94.30;51.95;;;;;;;0.71;66.47;95070.28;4132925;28;20055;-77
2020/12/03 00:38:43;;;;;;;82.60;47.10;;;;;;;0.60;66.99;95063.16;4137596;28;20120;-78
2020/12/03 00:40:45;;;;;;;86.03;49.75;;;;;;;0.57;67.33;95063.31;4141986;28;20099;-75
2020/12/03 00:42:46;;;;;;;78.53;43.83;;;;;;;0.51;67.66;95068.00;4157066;28;20503;-78
2020/12/03 00:44:47;;;;;;;80.53;43.33;;;;;;;0.49;67.45;95069.84;4130121;28;20103;-75
2020/12/03 00:46:49;;;;;;;81.30;45.33;;;;;;;0.51;67.42;95075.75;4137847;28;20136;-77
2020/12/03 00:48:50;;;;;;;70.68;41.25;;;;;;;0.48;66.29;95073.34;4168677;28;20049;-77
2020/12/03 00:50:51;;;;;;;72.88;43.38;;;;;;;0.46;67.05;95077.78;4143256;28;20062;-77
2020/12/03 00:52:52;;;;;;;85.43;46.47;;;;;;;0.43;67.26;95080.50;4174741;28;20056;-76
2020/12/03 00:54:54;;;;;;;93.90;50.80;;;;;;;0.52;67.87;95077.41;4174598;28;20052;-75
2020/12/03 00:56:55;;;;;;;93.35;51.33;;;;;;;0.50;67.41;95079.25;4141991;28;20054;-76
2020/12/03 00:58:56;;;;;;;79.13;45.35;;;;;;;0.56;68.02;95076.28;4140677;28;20054;-76
2020/12/03 01:00:57;;;;;;;86.50;47.88;;;;;;;0.58;67.73;95072.72;4143115;28;20132;-75
2020/12/03 01:02:59;;;;;;;89.82;48.30;;;;;;;0.58;67.62;95077.03;4131775;28;20046;-77
2020/12/03 01:05:00;;;;;;;80.75;43.67;;;;;;;0.62;67.56;95068.22;4140512;28;20054;-77
2020/12/03 01:07:01;;;;;;;73.75;41.78;;;;;;;0.67;67.18;95068.78;4142579;28;20260;-77
2020/12/03 01:09:03;;;;;;;75.32;44.25;;;;;;;0.67;67.55;95062.78;4141777;28;20125;-77
2020/12/03 01:11:05;;;;;;;81.30;44.95;;;;;;;0.60;67.44;95050.28;4157136;28;20473;-76
2020/12/03 01:13:06;;;;;;;81.68;45.53;;;;;;;0.59;67.88;95047.78;4143605;28;20133;-76
2020/12/03 01:15:08;;;;;;;79.97;45.90;;;;;;;0.54;67.94;95039.50;4139896;28;20538;-77
2020/12/03 01:17:12;;;;;;;80.03;44.95;;;;;;;0.58;67.41;95051.25;4139464;28;20046;-75
2020/12/03 01:19:13;;;;;;;74.93;42.65;;;;;;;0.63;67.36;95044.09;4154731;28;20147;-77
2020/12/03 01:21:19;;;;;;;81.93;44.95;;;;;;;0.63;67.03;95043.28;4161268;28;20048;-77
2020/12/03 01:23:20;;;;;;;77.22;44.83;;;;;;;0.64;67.12;95037.19;4157687;28;20141;-77
2020/12/03 01:25:23;;;;;;;73.13;42.45;;;;;;;0.66;67.38;95035.34;4147496;28;20152;-76
2020/12/03 01:27:26;;;;;;;62.63;39.03;;;;;;;0.63;66.93;95038.94;4152484;28;20068;-76
2020/12/03 01:29:27;;;;;;;64.95;36.47;;;;;;;0.65;67.29;95041.44;4156392;28;20049;-74
2020/12/03 01:31:31;;;;;;;62.65;37.47;;;;;;;0.64;66.75;95038.00;4173760;28;20057;-76
2020/12/03 01:33:32;;;;;;;72.90;41.13;;;;;;;0.62;67.47;95037.28;4159386;28;20433;-76
2020/12/03 01:35:33;;;;;;;68.32;39.70;;;;;;;0.57;66.88;95036.72;4160367;28;20598;-75
2020/12/03 01:37:35;;;;;;;67.65;38.55;;;;;;;0.49;66.58;95037.16;4152048;28;20049;-76
2020/12/03 01:39:36;;;;;;;70.35;40.38;;;;;;;0.49;67.05;95037.16;4156589;28;20037;-77
2020/12/03 01:41:38;;;;;;;81.07;46.75;;;;;;;0.54;67.71;95034.34;4169582;28;20053;-77
2020/12/03 01:43:42;;;;;;;72.28;42.63;;;;;;;0.57;67.17;95034.16;4157156;28;20543;-69
2020/12/03 01:45:51;;;;;;;77.40;43.28;;;;;;;0.58;67.98;95021.16;4162555;28;20061;-69
2020/12/03 01:47:52;;;;;;;69.93;39.25;;;;;;;0.58;67.30;95020.31;4173711;28;20595;-70
2020/12/03 01:49:53;;;;;;;69.15;39.47;;;;;;;0.56;67.06;95023.00;4148144;28;20459;-69
2020/12/03 01:51:55;;;;;;;70.47;42.03;;;;;;;0.56;67.50;95015.28;4159772;28;20041;-68
2020/12/03 01:54:00;;;;;;;66.93;36.35;;;;;;;0.54;67.75;95022.28;4158348;28;20066;-68
2020/12/03 01:56:05;;;;;;;60.70;35.95;;;;;;;0.58;67.22;95017.75;4157574;28;20578;-68
2020/12/03 01:58:06;;;;;;;58.90;34.60;;;;;;;0.61;66.77;95020.16;4153670;28;20045;-68
2020/12/03 02:00:11;;;;;;;65.30;38.30;;;;;;;0.64;66.68;95016.56;4153313;28;20538;-69
2020/12/03 02:02:14;;;;;;;61.13;34.78;;;;;;;0.59;67.49;95011.69;4157840;28;20053;-69
2020/12/03 02:04:15;;;;;;;58.05;33.42;;;;;;;0.56;67.38;95010.13;4157442;28;20057;-69
2020/12/03 02:06:22;;;;;;;60.97;33.08;;;;;;;0.59;67.26;95012.50;4158578;28;20451;-69
2020/12/03 02:08:24;;;;;;;54.22;32.13;;;;;;;0.61;66.81;94995.19;4158100;28;20080;-69
2020/12/03 02:10:26;;;;;;;55.15;32.53;;;;;;;0.60;67.38;94997.84;4158537;28;20515;-69
2020/12/03 02:12:27;;;;;;;51.10;30.33;;;;;;;0.60;66.69;94996.13;4157444;28;20114;-68
2020/12/03 02:14:29;;;;;;;53.53;31.40;;;;;;;0.62;67.23;94990.84;4162025;28;20055;-68
2020/12/03 02:16:35;;;;;;;54.35;31.75;;;;;;;0.62;66.71;94996.00;4169066;28;20136;-68
2020/12/03 02:18:36;;;;;;;51.70;29.27;;;;;;;0.59;66.20;95004.78;4140872;28;20084;-68
2020/12/03 02:20:37;;;;;;;54.55;31.98;;;;;;;0.57;66.91;94998.88;4168743;28;20303;-68
2020/12/03 02:22:39;;;;;;;51.40;30.38;;;;;;;0.55;67.00;95005.03;4162290;28;20504;-68
2020/12/03 02:24:41;;;;;;;50.60;29.42;;;;;;;0.51;66.48;95003.56;4163534;28;20096;-68
2020/12/03 02:26:49;;;;;;;46.50;27.20;;;;;;;0.42;66.96;94998.97;4145035;28;20343;-68
2020/12/03 02:28:51;;;;;;;45.97;26.23;;;;;;;0.38;66.61;94993.16;4168707;28;20346;-68
2020/12/03 02:30:52;;;;;;;42.28;25.80;;;;;;;0.37;66.93;94988.94;4162739;28;20141;-69
2020/12/03 02:32:53;;;;;;;45.70;25.63;;;;;;;0.39;67.18;94994.81;4148475;28;20068;-69
2020/12/03 02:34:54;;;;;;;41.65;24.90;;;;;;;0.43;66.95;94991.16;4158547;28;20046;-69
2020/12/03 02:36:57;;;;;;;44.10;24.98;;;;;;;0.40;66.90;94986.97;4158735;28;20552;-68
2020/12/03 02:38:58;;;;;;;46.10;25.67;;;;;;;0.44;66.80;94985.06;4170734;28;20492;-67
2020/12/03 02:41:00;;;;;;;40.72;23.83;;;;;;;0.45;66.56;94993.63;4165575;28;20049;-69
2020/12/03 02:43:02;;;;;;;39.10;22.60;;;;;;;0.49;66.42;94992.50;4161266;28;20060;-68
2020/12/03 02:45:03;;;;;;;45.13;25.10;;;;;;;0.49;66.41;94988.19;4161703;28;20064;-68
2020/12/03 02:47:04;;;;;;;46.90;25.00;;;;;;;0.49;66.50;94987.34;4150802;28;21045;-68
2020/12/03 02:49:06;;;;;;;41.72;23.40;;;;;;;0.49;66.57;94982.19;4145068;28;20038;-68
2020/12/03 02:51:07;;;;;;;41.42;23.77;;;;;;;0.50;66.52;94987.28;4156286;28;20267;-68
2020/12/03 02:53:09;;;;;;;41.20;23.10;;;;;;;0.49;66.30;94971.91;4152614;28;20053;-68
2020/12/03 02:55:10;;;;;;;46.35;23.80;;;;;;;0.46;65.78;94969.50;4166567;28;20045;-68
2020/12/03 02:57:11;;;;;;;38.38;22.75;;;;;;;0.35;65.79;94978.69;4146821;28;20060;-69
2020/12/03 02:59:12;;;;;;;40.70;23.00;;;;;;;0.37;66.60;94986.34;4149520;28;20212;-68
2020/12/03 03:01:13;;;;;;;40.42;22.65;;;;;;;0.36;66.66;94980.34;4159713;28;20049;-68
2020/12/03 03:03:15;;;;;;;39.53;22.98;;;;;;;0.37;66.30;94974.28;4159635;28;20049;-68
2020/12/03 03:05:16;;;;;;;40.95;22.40;;;;;;;0.25;66.54;94967.28;4160927;28;20500;-68
2020/12/03 03:07:17;;;;;;;41.08;22.67;;;;;;;0.19;66.34;94983.09;4167345;28;20104;-69
2020/12/03 03:09:19;;;;;;;43.45;24.38;;;;;;;0.16;66.72;94970.38;4163727;28;20123;-68
2020/12/03 03:11:21;;;;;;;41.03;22.48;;;;;;;0.19;67.07;94973.63;4173836;28;20512;-68
2020/12/03 03:13:23;;;;;;;39.22;22.60;;;;;;;0.26;67.55;94966.38;4174286;28;20057;-68
2020/12/03 03:15:25;;;;;;;42.25;24.92;;;;;;;0.30;66.92;94967.00;4157457;28;20049;-68
2020/12/03 03:17:26;;;;;;;40.75;22.77;;;;;;;0.27;66.84;94968.00;4151316;28;20050;-69
2020/12/03 03:19:27;;;;;;;40.78;23.83;;;;;;;0.25;67.15;94964.69;4167726;28;20562;-67
2020/12/03 03:21:30;;;;;;;37.30;22.98;;;;;;;0.22;67.11;94972.63;4160321;28;20241;-68
2020/12/03 03:23:31;;;;;;;42.88;23.58;;;;;;;0.24;66.53;94970.78;4167466;28;20791;-67
2020/12/03 03:25:32;;;;;;;46.00;23.83;;;;;;;0.22;67.16;94972.63;4160511;28;20481;-68
2020/12/03 03:27:34;;;;;;;38.95;22.52;;;;;;;0.22;66.91;94962.31;4159227;28;20061;-69
2020/12/03 03:29:35;;;;;;;40.88;23.17;;;;;;;0.10;67.59;94974.13;4156754;28;20046;-68
2020/12/03 03:31:37;;;;;;;45.92;24.98;;;;;;;0.06;67.80;94977.81;4159930;28;20461;-68
2020/12/03 03:33:38;;;;;;;45.60;26.48;;;;;;;-0.19;68.90;94977.56;4158817;28;20059;-68
2020/12/03 03:35:39;;;;;;;46.55;26.58;;;;;;;-0.34;69.28;94968.97;4161204;28;20060;-68
2020/12/03 03:37:40;;;;;;;49.10;26.83;;;;;;;-0.21;69.37;94972.50;4158813;28;20100;-67
2020/12/03 03:39:42;;;;;;;52.88;29.60;;;;;;;-0.09;68.89;94978.69;4157323;28;20049;-75
2020/12/03 03:41:43;;;;;;;51.42;28.73;;;;;;;-0.03;68.84;94976.59;4164843;28;20076;-76
2020/12/03 03:43:44;;;;;;;51.50;29.45;;;;;;;0.07;68.59;94978.66;4172511;28;20048;-75
2020/12/03 03:45:45;;;;;;;50.88;28.23;;;;;;;0.09;68.93;94962.19;4164175;28;20052;-74
2020/12/03 03:47:47;;;;;;;53.03;30.75;;;;;;;0.14;69.07;94974.81;4159625;28;20046;-75
2020/12/03 03:49:48;;;;;;;45.63;28.27;;;;;;;0.21;68.81;94970.94;4168557;28;20049;-76
2020/12/03 03:51:50;;;;;;;50.17;29.83;;;;;;;0.27;67.93;94969.75;4164770;28;20057;-74
2020/12/03 03:53:51;;;;;;;45.03;28.33;;;;;;;0.29;68.20;94971.31;4162544;28;20196;-76
2020/12/03 03:55:52;;;;;;;49.33;27.40;;;;;;;0.28;67.96;94980.00;4162494;28;20056;-75
2020/12/03 03:57:53;;;;;;;50.72;28.75;;;;;;;0.29;68.30;94968.75;4157398;28;20144;-75
2020/12/03 03:59:55;;;;;;;49.92;28.60;;;;;;;0.29;68.02;94971.31;4161330;28;20041;-76
2020/12/03 04:01:56;;;;;;;45.78;28.42;;;;;;;0.30;68.19;94973.00;4162712;28;20139;-76
2020/12/03 04:03:58;;;;;;;51.85;29.70;;;;;;;0.34;67.97;94965.91;4168192;28;20095;-68
2020/12/03 04:05:59;;;;;;;52.15;30.05;;;;;;;0.38;67.75;94973.34;4142842;28;20046;-67
2020/12/03 04:08:00;;;;;;;49.35;29.77;;;;;;;0.46;67.44;94974.66;4162925;28;20481;-67
2020/12/03 04:10:02;;;;;;;52.17;30.85;;;;;;;0.47;67.44;94973.72;4151784;28;20088;-68
2020/12/03 04:12:03;;;;;;;49.13;30.70;;;;;;;0.49;67.83;94987.34;4158852;28;20111;-69
2020/12/03 04:14:04;;;;;;;49.60;30.45;;;;;;;0.46;67.72;94974.66;4171413;28;20107;-67
2020/12/03 04:16:05;;;;;;;55.65;31.65;;;;;;;0.48;67.76;94968.50;4164848;28;20072;-70
2020/12/03 04:18:07;;;;;;;50.63;29.92;;;;;;;0.44;67.49;94968.78;4166609;28;20103;-68
2020/12/03 04:20:13;;;;;;;57.13;32.53;;;;;;;0.39;67.91;94956.97;4171758;28;20420;-70
2020/12/03 04:22:15;;;;;;;48.85;30.27;;;;;;;0.35;67.84;94958.09;4160624;28;20049;-69
2020/12/03 04:24:16;;;;;;;59.47;31.80;;;;;;;0.36;67.39;94966.63;4157115;28;20112;-68
2020/12/03 04:26:17;;;;;;;53.55;31.58;;;;;;;0.39;68.11;94964.72;4158602;28;20068;-70
2020/12/03 04:28:19;;;;;;;52.45;29.55;;;;;;;0.46;68.08;94964.34;4189832;28;20519;-67
2020/12/03 04:30:20;;;;;;;50.50;29.17;;;;;;;0.48;67.56;94968.50;4174623;28;20061;-69
2020/12/03 04:32:22;;;;;;;52.15;29.23;;;;;;;0.50;67.08;94974.38;4163459;28;20055;-67
2020/12/03 04:34:23;;;;;;;46.90;27.40;;;;;;;0.49;67.33;94977.03;4164582;28;20856;-68
2020/12/03 04:36:24;;;;;;;49.08;29.55;;;;;;;0.40;67.31;94974.09;4182546;28;20068;-67
2020/12/03 04:38:25;;;;;;;51.63;30.45;;;;;;;0.29;68.00;94968.75;4175222;28;20254;-68
2020/12/03 04:40:35;;;;;;;54.42;29.48;;;;;;;0.28;68.01;94981.72;4182572;28;20122;-68
2020/12/03 04:42:36;;;;;;;48.70;28.60;;;;;;;0.26;68.39;94979.25;4160154;28;20521;-68
2020/12/03 04:44:39;;;;;;;43.55;25.77;;;;;;;0.22;67.75;94976.94;4164193;28;20061;-68
2020/12/03 04:46:44;;;;;;;42.53;25.45;;;;;;;0.18;67.70;94973.72;4157300;28;20511;-68
2020/12/03 04:49:03;;;;;;;44.88;24.33;;;;;;;0.08;68.36;94980.31;4141642;28;20505;-68
2020/12/03 04:51:38;;;;;;;43.85;25.35;;;;;;;0.07;68.63;94965.78;4159763;28;20060;-68
2020/12/03 04:54:03;;;;;;;42.13;23.48;;;;;;;0.09;68.07;94971.69;4154888;28;20545;-69
2020/12/03 04:56:13;;;;;;;43.45;25.20;;;;;;;0.05;68.10;94973.59;4157315;28;20078;-68
2020/12/03 04:58:29;;;;;;;39.85;23.92;;;;;;;0.01;67.96;94986.75;4170225;28;20423;-69
2020/12/03 05:00:41;;;;;;;42.95;24.65;;;;;;;-0.14;68.53;94970.41;4162199;28;20056;-67
2020/12/03 05:03:21;;;;;;;43.58;25.13;;;;;;;-0.21;68.95;94965.63;4172103;28;20133;-69
2020/12/03 05:05:27;;;;;;;46.08;26.40;;;;;;;-0.19;69.08;94967.25;4172689;28;20463;-69
2020/12/03 05:07:29;;;;;;;46.15;24.80;;;;;;;-0.15;69.09;94964.44;4169345;28;20314;-68
2020/12/03 05:10:00;;;;;;;46.33;27.80;;;;;;;-0.16;68.70;94967.09;4158700;28;20058;-69
2020/12/03 05:12:24;;;;;;;45.97;24.30;;;;;;;-0.19;68.48;94965.53;4155250;28;20183;-68
2020/12/03 05:14:35;;;;;;;50.42;26.27;;;;;;;-0.14;68.40;94973.00;4149741;28;20050;-67
2020/12/03 05:16:50;;;;;;;47.92;26.27;;;;;;;-0.18;68.14;94968.94;4151234;28;20133;-67
2020/12/03 05:18:56;;;;;;;37.65;24.35;;;;;;;-0.18;68.43;94974.09;4186568;28;20056;-69
2020/12/03 05:21:01;;;;;;;43.78;25.42;;;;;;;-0.14;68.62;94976.38;4182355;28;20049;-69
2020/12/03 05:23:15;;;;;;;47.03;27.17;;;;;;;-0.10;68.80;94970.16;4165307;28;20051;-76
2020/12/03 05:25:17;;;;;;;47.35;27.50;;;;;;;-0.05;68.56;94975.84;4157122;28;20049;-76
2020/12/03 05:27:30;;;;;;;48.90;27.70;;;;;;;0.02;68.79;94975.50;4175192;28;20250;-77
2020/12/03 05:29:31;;;;;;;49.90;30.17;;;;;;;0.02;67.98;94976.31;4139484;28;20505;-75
2020/12/03 05:31:41;;;;;;;46.90;27.40;;;;;;;0.07;68.14;94981.25;4166448;28;20045;-77
2020/12/03 05:33:43;;;;;;;52.47;31.98;;;;;;;0.10;68.10;94981.06;4156815;28;20496;-76
2020/12/03 05:35:45;;;;;;;55.05;31.67;;;;;;;0.10;68.31;94971.56;4158103;28;20115;-75
2020/12/03 05:37:47;;;;;;;54.50;31.23;;;;;;;0.08;68.35;94970.81;4144687;28;20429;-76
2020/12/03 05:39:51;;;;;;;49.22;29.60;;;;;;;0.08;68.75;94977.72;4151196;28;20463;-77
2020/12/03 05:41:56;;;;;;;52.72;29.48;;;;;;;0.13;68.49;94986.00;4164101;28;20152;-77
2020/12/03 05:43:57;;;;;;;62.58;34.08;;;;;;;0.12;67.84;94987.75;4171857;28;20052;-76
2020/12/03 05:46:02;;;;;;;76.57;40.40;;;;;;;0.16;68.20;94976.38;4156707;28;20111;-76
2020/12/03 05:48:05;;;;;;;104.93;56.70;;;;;;;0.21;68.78;94976.09;4157325;28;20060;-76
2020/12/03 05:50:10;;;;;;;76.85;42.72;;;;;;;0.22;67.83;94982.91;4167083;28;20133;-77
2020/12/03 05:52:19;;;;;;;69.70;41.15;;;;;;;0.24;68.86;94978.50;4163585;28;20079;-76
2020/12/03 05:54:21;;;;;;;60.47;38.40;;;;;;;0.31;68.54;94968.66;4189388;28;20110;-77
2020/12/03 05:56:24;;;;;;;58.63;35.83;;;;;;;0.36;68.38;94977.75;4146272;28;20061;-77
2020/12/03 05:58:30;;;;;;;63.55;37.00;;;;;;;0.39;67.84;94966.47;4170490;28;20474;-78
2020/12/03 06:00:32;;;;;;;57.42;32.50;;;;;;;0.43;67.88;94967.94;4174930;28;20515;-76
2020/12/03 06:02:42;;;;;;;50.10;29.90;;;;;;;0.40;67.28;94965.53;4160750;28;20053;-77
2020/12/03 06:04:55;;;;;;;46.75;28.30;;;;;;;0.41;67.72;94974.94;4173209;28;20118;-76
2020/12/03 06:07:38;;;;;;;48.60;29.58;;;;;;;0.41;67.44;94969.78;4172334;28;20496;-76
2020/12/03 06:10:14;;;;;;;47.45;28.30;;;;;;;0.40;67.70;94966.34;4157818;28;20111;-78
2020/12/03 06:12:38;;;;;;;48.25;28.30;;;;;;;0.39;67.51;94972.44;4157420;28;20053;-77
2020/12/03 06:15:19;;;;;;;45.13;27.58;;;;;;;0.45;67.28;94962.69;4166176;28;20049;-78
2020/12/03 06:17:40;;;;;;;51.10;29.10;;;;;;;0.57;66.89;94974.84;4157264;28;20584;-78
2020/12/03 06:19:59;;;;;;;53.65;33.13;;;;;;;0.61;66.46;94974.56;4174509;28;20136;-76
2020/12/03 06:22:16;;;;;;;74.65;40.80;;;;;;;0.76;66.20;94972.81;4146215;28;20052;-76
2020/12/03 06:24:17;;;;;;;48.75;29.10;;;;;;;0.91;65.15;94973.63;4156666;28;20432;-77
2020/12/03 06:26:24;;;;;;;47.90;29.70;;;;;;;1.07;64.94;94976.09;4157103;28;20180;-77
2020/12/03 06:29:09;;;;;;;49.03;27.60;;;;;;;1.13;64.88;94975.72;4156760;28;20057;-78
2020/12/03 06:31:24;;;;;;;49.08;28.17;;;;;;;1.10;64.41;94975.06;4153763;28;20130;-77
2020/12/03 06:33:25;;;;;;;46.75;27.75;;;;;;;1.06;64.67;94979.63;4159801;28;20134;-76
2020/12/03 06:35:41;;;;;;;45.80;28.25;;;;;;;1.08;64.60;94970.03;4161840;28;20065;-78
2020/12/03 06:38:08;;;;;;;46.05;28.50;;;;;;;1.01;64.93;94977.31;4143224;28;20058;-77
2020/12/03 06:40:14;;;;;;;39.28;25.98;;;;;;;1.00;65.05;94980.81;4149740;28;20099;-77
2020/12/03 06:42:31;;;;;;;45.38;28.13;;;;;;;1.04;64.71;94980.63;4147598;28;20104;-77
2020/12/03 06:44:45;;;;;;;39.83;25.58;;;;;;;1.08;64.82;94982.94;4163575;28;20044;-78
2020/12/03 06:46:52;;;;;;;42.83;25.80;;;;;;;1.16;64.09;94988.44;4151832;28;20149;-81
2020/12/03 06:49:34;;;;;;;41.10;26.10;;;;;;;1.21;64.57;94975.25;4145381;28;20058;-77
2020/12/03 06:52:13;;;;;;;42.00;25.95;;;;;;;1.23;64.34;94981.97;4152306;28;20068;-76
2020/12/03 06:54:51;;;;;;;43.85;26.15;;;;;;;1.28;63.76;94984.25;4159650;28;20053;-76
2020/12/03 06:57:28;;;;;;;40.72;24.95;;;;;;;1.36;64.37;94988.97;4159488;28;20045;-78
2020/12/03 06:59:44;;;;;;;44.13;25.50;;;;;;;1.34;63.34;94986.47;4161048;28;20478;-78
2020/12/03 07:02:23;;;;;;;36.17;23.70;;;;;;;1.42;64.06;94976.50;4161308;28;20053;-77
2020/12/03 07:04:43;;;;;;;38.90;23.42;;;;;;;1.48;63.30;94985.59;4159432;28;20122;-77
2020/12/03 07:06:47;;;;;;;37.10;24.45;;;;;;;1.47;63.71;94983.94;4171663;28;20113;-77
2020/12/03 07:08:59;;;;;;;38.92;23.13;;;;;;;1.43;62.94;94983.28;4175435;28;20053;-77
2020/12/03 07:11:10;;;;;;;35.63;22.58;;;;;;;1.48;62.71;94980.41;4160793;28;20079;-77
2020/12/03 07:13:14;;;;;;;40.75;23.55;;;;;;;1.53;62.65;94982.75;4170350;28;20059;-77
2020/12/03 07:15:21;;;;;;;41.00;24.27;;;;;;;1.67;62.96;94994.75;4167547;28;20592;-79
2020/12/03 07:17:59;;;;;;;40.63;23.83;;;;;;;1.76;62.00;94994.16;4162331;28;20053;-81
2020/12/03 07:20:16;;;;;;;37.90;21.85;;;;;;;1.81;63.65;94981.78;4159866;28;20127;-81
2020/12/03 07:22:21;;;;;;;38.40;22.65;;;;;;;1.90;62.72;94988.13;4146386;28;20248;-77
2020/12/03 07:24:30;;;;;;;33.42;21.92;;;;;;;1.94;61.82;94981.84;4170604;28;20070;-82
2020/12/03 07:26:50;;;;;;;34.38;21.42;;;;;;;2.05;61.81;94984.53;4157503;28;20060;-78
2020/12/03 07:28:53;;;;;;;33.33;20.95;;;;;;;1.98;62.20;94970.34;4174293;28;20469;-81
2020/12/03 07:30:58;;;;;;;48.63;31.73;;;;;;;1.99;62.38;94974.59;4143520;28;20058;-78
2020/12/03 07:33:03;;;;;;;70.85;39.50;;;;;;;2.05;62.06;94975.03;4156894;28;20429;-79
2020/12/03 07:35:20;;;;;;;42.13;23.60;;;;;;;2.19;61.50;94975.88;4150328;28;20088;-80
2020/12/03 07:37:47;;;;;;;30.25;19.77;;;;;;;2.26;60.99;94971.97;4176548;28;20134;-77
2020/12/03 07:39:49;;;;;;;30.95;19.73;;;;;;;2.34;61.41;94974.84;4142576;28;20049;-80
2020/12/03 07:41:54;;;;;;;31.60;21.10;;;;;;;2.43;61.17;94979.41;4170742;28;20056;-77
2020/12/03 07:44:15;;;;;;;34.95;20.02;;;;;;;2.45;60.36;94976.72;4173143;28;20053;-75
2020/12/03 07:46:28;;;;;;;33.15;20.48;;;;;;;2.39;60.64;94977.16;4168817;28;20107;-77
2020/12/03 07:48:33;;;;;;;34.70;21.30;;;;;;;2.45;60.99;94971.53;4179149;28;20087;-75
2020/12/03 07:51:12;;;;;;;31.05;19.92;;;;;;;2.00;61.13;94984.00;4182466;28;20055;-77
2020/12/03 07:53:24;;;;;;;29.35;19.25;;;;;;;2.16;61.59;94983.84;4159054;28;20056;-76
2020/12/03 07:55:25;;;;;;;35.17;20.02;;;;;;;1.83;61.91;94983.34;4160091;28;20135;-78
2020/12/03 07:57:38;;;;;;;32.58;20.48;;;;;;;1.89;62.37;94984.69;4176448;28;20116;-78
2020/12/03 07:59:40;;;;;;;37.10;22.55;;;;;;;1.68;63.14;94994.66;4162277;28;20049;-79
2020/12/03 08:01:41;;;;;;;31.77;20.10;;;;;;;1.80;62.61;94990.47;4165285;28;21068;-78
2020/12/03 08:03:49;;;;;;;32.22;20.60;;;;;;;2.03;62.45;94989.78;4166711;28;20420;-78
2020/12/03 08:05:53;;;;;;;30.02;18.92;;;;;;;2.32;62.28;94978.47;4151242;28;20494;-78
2020/12/03 08:07:54;;;;;;;38.20;24.55;;;;;;;2.52;61.15;94990.91;4159613;28;20088;-77
2020/12/03 08:09:56;;;;;;;53.53;32.58;;;;;;;2.72;61.01;94992.13;4162211;28;20049;-77
2020/12/03 08:11:57;;;;;;;35.47;20.90;;;;;;;2.86;61.09;94986.84;4160125;28;20045;-79
2020/12/03 08:13:58;;;;;;;31.77;19.80;;;;;;;2.87;59.49;94987.69;4167327;28;20049;-78
2020/12/03 08:16:03;;;;;;;31.98;19.08;;;;;;;2.97;59.94;94982.69;4183707;28;20271;-77
2020/12/03 08:18:32;;;;;;;29.30;18.38;;;;;;;3.12;60.34;94975.63;4144210;28;20540;-78
2020/12/03 08:20:44;;;;;;;29.58;19.05;;;;;;;3.27;59.62;94984.94;4165680;28;20052;-79
2020/12/03 08:22:49;;;;;;;29.33;18.27;;;;;;;3.36;58.60;94989.44;4154090;28;20056;-78
2020/12/03 08:25:03;;;;;;;31.25;20.02;;;;;;;3.51;58.44;94977.19;4144374;28;20137;-77
2020/12/03 08:27:15;;;;;;;27.75;19.27;;;;;;;3.57;57.29;94973.31;4166984;28;20068;-81
2020/12/03 08:29:26;;;;;;;30.80;19.20;;;;;;;3.62;57.89;94984.19;4165934;28;20172;-79
2020/12/03 08:31:27;;;;;;;31.90;19.83;;;;;;;3.63;57.70;94991.00;4159325;28;20050;-76
2020/12/03 08:33:35;;;;;;;31.67;20.33;;;;;;;3.23;57.56;94983.47;4176277;28;20103;-78
2020/12/03 08:35:38;;;;;;;34.63;22.67;;;;;;;3.03;58.81;94983.13;4163019;28;20203;-69
2020/12/03 08:37:39;;;;;;;31.67;20.73;;;;;;;2.35;60.56;94988.63;4140223;28;20061;-70
2020/12/03 08:39:43;;;;;;;35.83;21.75;;;;;;;2.17;61.87;94995.81;4156814;28;20062;-69
2020/12/03 08:41:48;;;;;;;34.58;22.55;;;;;;;2.06;62.18;94991.34;4176496;28;20049;-69
2020/12/03 08:43:53;;;;;;;31.92;20.10;;;;;;;2.34;61.41;94995.53;4166072;28;20235;-69
2020/12/03 08:46:13;;;;;;;35.03;21.90;;;;;;;2.43;61.74;94987.19;4158124;28;20072;-69
2020/12/03 08:48:16;;;;;;;28.90;18.63;;;;;;;2.25;61.44;94988.38;4157506;28;20052;-69
2020/12/03 08:50:18;;;;;;;30.55;19.50;;;;;;;1.96;62.29;94985.97;4164348;28;20049;-68
2020/12/03 08:52:19;;;;;;;30.45;20.13;;;;;;;2.25;61.92;94978.03;4174805;28;20143;-70
2020/12/03 08:54:31;;;;;;;35.70;20.88;;;;;;;2.69;62.02;94984.59;4173120;28;20136;-68
2020/12/03 08:56:35;;;;;;;34.13;20.25;;;;;;;3.06;60.88;94985.47;4153013;28;20069;-69
2020/12/03 08:58:36;;;;;;;;;;;;;;;3.40;60.72;94977.09;4164717;28;20068;-69
2020/12/03 09:00:42;;;;;;;34.38;21.73;;;;;;;3.67;59.62;94975.13;4164273;28;19932;-68
2020/12/03 09:02:44;;;;;;;34.10;22.00;;;;;;;3.82;58.13;94974.97;4154495;28;20402;-69
2020/12/03 09:04:53;;;;;;;33.25;21.98;;;;;;;3.75;57.37;94972.00;4162022;28;20530;-69
2020/12/03 09:06:56;;;;;;;32.92;20.73;;;;;;;3.18;58.96;94981.19;4159085;28;20148;-70
2020/12/03 09:08:59;;;;;;;33.80;22.00;;;;;;;3.10;59.97;94977.47;4166674;28;20049;-69
2020/12/03 09:11:01;;;;;;;35.50;23.00;;;;;;;3.17;59.91;94974.38;4170027;28;20057;-77
2020/12/03 09:13:02;;;;;;;32.60;20.50;;;;;;;3.46;59.34;94972.34;4177505;28;20056;-79
2020/12/03 09:15:05;;;;;;;31.92;20.77;;;;;;;3.76;58.85;94971.03;4168896;28;20060;-78
2020/12/03 09:17:10;;;;;;;35.43;21.73;;;;;;;4.08;58.17;94971.28;4154574;28;20482;-77
2020/12/03 09:19:22;;;;;;;46.42;30.10;;;;;;;3.47;58.58;94960.19;4182020;28;20279;-78
2020/12/03 09:21:28;;;;;;;46.28;29.13;;;;;;;3.12;59.65;94960.94;4172095;28;20076;-78
2020/12/03 09:23:32;;;;;;;44.72;28.40;;;;;;;2.96;60.60;94970.69;4144071;28;20057;-79
2020/12/03 09:25:33;;;;;;;44.65;27.95;;;;;;;2.36;62.33;94962.63;4165658;28;20052;-77
2020/12/03 09:27:46;;;;;;;43.50;26.48;;;;;;;2.34;62.73;94958.50;4175199;28;20057;-77
2020/12/03 09:29:52;;;;;;;44.67;26.65;;;;;;;2.11;62.69;94962.59;4156501;28;20069;-78
2020/12/03 09:31:59;;;;;;;40.40;23.50;;;;;;;2.44;62.76;94952.63;4175974;28;20067;-76
2020/12/03 09:34:03;;;;;;;40.22;23.77;;;;;;;2.96;62.04;94955.16;4167987;28;20053;-77
2020/12/03 09:36:04;;;;;;;37.80;24.33;;;;;;;3.30;61.18;94953.63;4163090;28;20497;-78
2020/12/03 09:38:08;;;;;;;34.17;23.38;;;;;;;3.41;60.00;94964.03;4179137;28;20444;-78
2020/12/03 09:40:09;;;;;;;38.83;24.05;;;;;;;3.65;59.87;94958.84;4159254;28;20043;-78
2020/12/03 09:42:15;;;;;;;39.20;23.98;;;;;;;3.66;59.20;94947.56;4158527;28;20060;-78
2020/12/03 09:44:19;;;;;;;36.92;23.10;;;;;;;3.85;59.54;94943.63;4154741;28;20099;-78
2020/12/03 09:46:25;;;;;;;40.35;24.08;;;;;;;4.01;59.26;94944.16;4171807;28;20190;-80
2020/12/03 09:48:28;;;;;;;36.10;23.00;;;;;;;3.45;59.09;94946.53;4157986;28;20469;-76